Philadelphia, Pennsylvania
Current Conditions -  °F | °C
As of 1:54 AM on Tuesday 21 Oct 2014 (Local Time) from KPHL Reporting Station
Overcast Overcast  
Wind Chill: 56°   Ceiling: 19000
Heat Index: 56°   Visibility: 10mi
Dew Point: 46°   Wind: 5mph
Humidity: 69%   Direction: 190°S
Pressure: 29.93"   Gusts: NA
Location:  39.95°N, 75.16°W
Report Text: KPHL 210554Z 19004KT 10SM FEW050 SCT120 OVC190 13/08 A2993 RMK AO2 SLP135 T01330078 10144 20128 58018
Loading
Personal Weather Stations






























Interactive Weather Map
Tropical Storm Tracking
New forecast layout! Learn more

10-Day Weather Forecast

Advertisements
Track Severe Weather on mobile